Time;durP1;ratioP1;P1;durP2;ratioP2;P2;SDS_P1;SDS_P2;PMS_P1;PMS_P2;Temp;Humidity;BMP_temperature;BMP_pressure;BME280_temperature;BME280_humidity;BME280_pressure;Samples;Min_cycle;Max_cycle;Signal;HPM_P1;HPM_P2
2021/05/03 00:03:55;;;;;;;5.37;3.53;;;;;;;;;;13028685;22;20619;-76
2021/05/03 00:08:58;;;;;;;6.30;3.53;;;;;;;;;;13033615;22;20177;-77
2021/05/03 00:14:01;;;;;;;5.70;3.53;;;;;;;;;;13010622;22;20201;-78
2021/05/03 00:19:09;;;;;;;4.73;3.07;;;;;;;;;;13031626;22;20181;-76
2021/05/03 00:24:13;;;;;;;4.73;3.20;;;;;;;;;;13032862;22;20205;-76
2021/05/03 00:29:17;;;;;;;4.70;2.67;;;;;;;;;;13033483;22;20178;-76
2021/05/03 00:34:20;;;;;;;5.27;3.03;;;;;;;;;;13029454;22;20674;-76
2021/05/03 00:39:23;;;;;;;4.60;2.50;;;;;;;;;;13033127;22;20177;-77
2021/05/03 00:44:27;;;;;;;5.57;2.90;;;;;;;;;;13029840;22;20189;-75
2021/05/03 00:49:30;;;;;;;3.60;2.63;;;;;;;;;;13033534;22;20724;-76
2021/05/03 00:54:33;;;;;;;4.80;3.00;;;;;;;;;;13010094;22;20259;-76
2021/05/03 00:59:34;;;;;;;4.37;3.13;;;;;;;;;;13032254;22;20170;-76
2021/05/03 01:04:36;;;;;;;4.63;2.93;;;;;;;;;;13009431;22;20188;-76
2021/05/03 01:09:39;;;;;;;5.93;3.20;;;;;;;;;;13034212;22;20169;-76
2021/05/03 01:14:41;;;;;;;4.00;3.20;;;;;;;;;;13031463;22;20733;-77
2021/05/03 01:19:43;;;;;;;5.77;3.10;;;;;;;;;;13031624;22;20174;-76
2021/05/03 01:24:46;;;;;;;4.37;3.17;;;;;;;;;;13034392;22;20423;-77
2021/05/03 01:29:47;;;;;;;7.40;3.67;;;;;;;;;;13009996;22;20180;-76
2021/05/03 01:34:49;;;;;;;5.60;3.80;;;;;;;;;;13034801;22;20301;-76
2021/05/03 01:39:52;;;;;;;5.40;3.77;;;;;;;;;;13032415;22;20180;-76
2021/05/03 01:44:58;;;;;;;5.80;3.80;;;;;;;;;;13032552;22;20173;-76
2021/05/03 01:50:01;;;;;;;6.10;3.80;;;;;;;;;;13014763;22;20207;-75
2021/05/03 01:55:04;;;;;;;4.60;3.20;;;;;;;;;;13037244;22;20209;-76
2021/05/03 02:00:06;;;;;;;5.00;3.47;;;;;;;;;;13032411;22;20181;-75
2021/05/03 02:05:09;;;;;;;6.00;3.80;;;;;;;;;;13037713;22;20174;-77
2021/05/03 02:10:13;;;;;;;6.33;4.00;;;;;;;;;;13014905;22;20174;-76
2021/05/03 02:15:17;;;;;;;5.40;4.20;;;;;;;;;;13034290;22;20564;-76
2021/05/03 02:20:20;;;;;;;7.33;4.40;;;;;;;;;;13035567;22;20632;-75
2021/05/03 02:25:24;;;;;;;6.70;4.73;;;;;;;;;;13035815;22;20178;-75
2021/05/03 02:30:27;;;;;;;6.10;4.67;;;;;;;;;;13033310;22;20181;-76
2021/05/03 02:35:33;;;;;;;6.73;4.97;;;;;;;;;;13013940;22;20212;-76
2021/05/03 02:40:38;;;;;;;8.30;5.23;;;;;;;;;;13031226;22;20174;-74
2021/05/03 02:45:41;;;;;;;7.83;5.17;;;;;;;;;;13035158;22;20239;-75
2021/05/03 02:50:43;;;;;;;8.67;5.17;;;;;;;;;;13035289;22;20835;-76
2021/05/03 02:55:46;;;;;;;9.87;5.83;;;;;;;;;;13014620;22;20198;-76
2021/05/03 03:00:48;;;;;;;9.43;6.00;;;;;;;;;;13030836;22;20501;-76
2021/05/03 03:05:50;;;;;;;8.13;6.00;;;;;;;;;;13035796;22;20346;-76
2021/05/03 03:10:52;;;;;;;8.60;5.73;;;;;;;;;;13013295;22;20178;-76
2021/05/03 03:15:54;;;;;;;9.83;6.53;;;;;;;;;;13035273;22;20205;-77
2021/05/03 03:20:56;;;;;;;8.47;6.30;;;;;;;;;;13014182;22;20944;-77
2021/05/03 03:25:58;;;;;;;9.17;6.93;;;;;;;;;;13037093;22;20186;-76
2021/05/03 03:31:00;;;;;;;12.13;7.30;;;;;;;;;;13029734;22;20204;-76
2021/05/03 03:36:02;;;;;;;14.43;7.57;;;;;;;;;;13036306;22;20208;-75
2021/05/03 03:41:05;;;;;;;11.37;7.43;;;;;;;;;;13033620;22;20174;-76
2021/05/03 03:46:07;;;;;;;11.50;7.90;;;;;;;;;;13032400;22;20177;-76
2021/05/03 03:51:09;;;;;;;10.77;7.60;;;;;;;;;;13016076;22;20166;-76
2021/05/03 03:56:12;;;;;;;11.50;8.27;;;;;;;;;;13015560;22;20259;-76
2021/05/03 04:01:19;;;;;;;10.70;8.00;;;;;;;;;;13013984;22;20166;-76
2021/05/03 04:06:30;;;;;;;17.10;8.47;;;;;;;;;;13033259;22;20529;-76
2021/05/03 04:11:49;;;;;;;10.20;7.33;;;;;;;;;;13012398;22;20165;-76
2021/05/03 04:22:33;;;;;;;11.70;7.83;;;;;;;;;;12998006;22;20192;-76
2021/05/03 04:27:37;;;;;;;10.47;7.60;;;;;;;;;;13034825;22;20169;-76
2021/05/03 04:32:39;;;;;;;12.07;8.03;;;;;;;;;;13013300;22;20174;-77
2021/05/03 04:37:41;;;;;;;12.07;7.50;;;;;;;;;;13034609;22;20201;-76
2021/05/03 04:42:44;;;;;;;12.03;7.60;;;;;;;;;;13035865;22;20686;-76
2021/05/03 04:47:46;;;;;;;9.53;7.20;;;;;;;;;;13029933;22;20638;-77
2021/05/03 04:52:48;;;;;;;11.20;7.57;;;;;;;;;;13033464;22;20227;-76
2021/05/03 04:57:51;;;;;;;11.67;7.87;;;;;;;;;;13009078;22;20691;-76
2021/05/03 05:02:52;;;;;;;11.03;7.50;;;;;;;;;;13032192;22;20178;-75
2021/05/03 05:07:55;;;;;;;10.27;7.20;;;;;;;;;;13011918;22;20176;-76
2021/05/03 05:12:57;;;;;;;17.10;7.93;;;;;;;;;;13011836;22;20188;-75
2021/05/03 05:18:00;;;;;;;10.43;7.20;;;;;;;;;;13010463;22;20177;-76
2021/05/03 05:23:03;;;;;;;11.23;7.30;;;;;;;;;;13014100;22;20209;-75
2021/05/03 05:28:06;;;;;;;13.57;6.93;;;;;;;;;;13034868;22;20305;-76
2021/05/03 05:33:07;;;;;;;11.40;6.90;;;;;;;;;;13035572;22;20184;-75
2021/05/03 05:38:09;;;;;;;10.23;6.73;;;;;;;;;;13035918;22;20189;-75
2021/05/03 05:43:12;;;;;;;10.80;7.17;;;;;;;;;;13037641;22;20181;-76
2021/05/03 05:48:14;;;;;;;13.97;6.40;;;;;;;;;;13031731;22;20623;-77
2021/05/03 05:53:16;;;;;;;13.50;6.80;;;;;;;;;;13014317;22;20511;-76
2021/05/03 05:58:18;;;;;;;12.53;7.10;;;;;;;;;;13032307;22;20188;-76
2021/05/03 06:03:20;;;;;;;9.43;7.03;;;;;;;;;;13011354;22;20690;-77
2021/05/03 06:08:22;;;;;;;11.83;7.03;;;;;;;;;;13013652;22;20231;-77
2021/05/03 06:13:25;;;;;;;10.57;7.70;;;;;;;;;;13033143;22;20197;-76
2021/05/03 06:18:27;;;;;;;12.47;7.53;;;;;;;;;;13014084;22;20178;-75
2021/05/03 06:23:29;;;;;;;11.90;7.90;;;;;;;;;;13035878;22;20201;-76
2021/05/03 06:28:31;;;;;;;15.50;8.23;;;;;;;;;;13016509;22;20174;-75
2021/05/03 06:33:33;;;;;;;10.50;7.70;;;;;;;;;;13031041;22;20197;-76
2021/05/03 06:38:35;;;;;;;13.37;8.33;;;;;;;;;;13015655;22;20174;-75
2021/05/03 06:43:38;;;;;;;14.50;8.63;;;;;;;;;;13012663;22;20189;-77
2021/05/03 06:48:40;;;;;;;13.73;8.93;;;;;;;;;;13012930;22;20898;-76
2021/05/03 06:53:42;;;;;;;15.73;10.00;;;;;;;;;;13008704;22;20198;-76
2021/05/03 06:58:45;;;;;;;15.73;9.57;;;;;;;;;;13035163;22;20261;-77
2021/05/03 07:03:47;;;;;;;15.17;10.63;;;;;;;;;;13011720;22;20550;-75
2021/05/03 07:08:50;;;;;;;18.87;10.67;;;;;;;;;;13033464;22;20174;-76
2021/05/03 07:13:53;;;;;;;16.33;12.00;;;;;;;;;;13032944;22;20259;-75
2021/05/03 07:18:55;;;;;;;19.37;11.87;;;;;;;;;;13012496;22;20178;-76
2021/05/03 07:23:57;;;;;;;19.13;12.60;;;;;;;;;;13010744;22;20223;-75
2021/05/03 07:28:59;;;;;;;20.63;13.63;;;;;;;;;;13015117;22;20174;-76
2021/05/03 07:34:01;;;;;;;18.93;12.93;;;;;;;;;;13029967;22;20659;-76
2021/05/03 07:39:05;;;;;;;23.77;16.30;;;;;;;;;;13014059;22;20477;-76
2021/05/03 07:44:09;;;;;;;28.47;18.33;;;;;;;;;;13032145;22;20198;-77
2021/05/03 07:49:11;;;;;;;28.40;20.10;;;;;;;;;;13033883;22;20847;-76
2021/05/03 07:54:15;;;;;;;29.47;20.00;;;;;;;;;;13035186;22;20216;-75
2021/05/03 07:59:18;;;;;;;33.50;22.47;;;;;;;;;;13033322;22;20181;-77
2021/05/03 08:04:21;;;;;;;32.97;22.77;;;;;;;;;;13034388;22;20999;-76
2021/05/03 08:09:23;;;;;;;33.13;22.27;;;;;;;;;;13011395;22;20577;-75
2021/05/03 08:14:26;;;;;;;37.53;24.90;;;;;;;;;;13010287;22;20727;-76
2021/05/03 08:19:29;;;;;;;36.33;22.80;;;;;;;;;;13011332;22;20224;-75
2021/05/03 08:24:31;;;;;;;37.80;24.40;;;;;;;;;;13033710;22;20229;-81
2021/05/03 08:29:35;;;;;;;37.97;25.37;;;;;;;;;;13030000;22;20256;-74
2021/05/03 08:34:37;;;;;;;33.73;23.57;;;;;;;;;;13030277;22;20663;-75
2021/05/03 08:39:38;;;;;;;33.47;23.90;;;;;;;;;;13027355;22;20181;-76
2021/05/03 08:44:42;;;;;;;37.43;25.27;;;;;;;;;;13007614;22;20447;-76
2021/05/03 08:49:52;;;;;;;35.23;24.73;;;;;;;;;;13028049;22;20346;-76
2021/05/03 08:54:54;;;;;;;36.03;25.17;;;;;;;;;;13029205;22;20201;-76
2021/05/03 08:59:57;;;;;;;30.27;21.47;;;;;;;;;;13008923;22;20174;-75
2021/05/03 09:04:59;;;;;;;29.50;20.70;;;;;;;;;;13010295;22;20634;-74
2021/05/03 09:10:12;;;;;;;28.50;19.97;;;;;;;;;;13008371;22;20491;-73
2021/05/03 09:15:19;;;;;;;31.43;22.07;;;;;;;;;;13031877;22;20215;-76
2021/05/03 09:20:26;;;;;;;27.63;18.23;;;;;;;;;;13032027;22;20189;-74
2021/05/03 09:25:31;;;;;;;31.00;22.50;;;;;;;;;;13036717;22;20630;-74
2021/05/03 09:30:35;;;;;;;31.50;20.77;;;;;;;;;;13010769;22;20166;-75
2021/05/03 09:35:43;;;;;;;24.47;18.90;;;;;;;;;;13038546;22;20189;-75
2021/05/03 09:40:45;;;;;;;27.63;19.80;;;;;;;;;;13013418;22;20269;-73
2021/05/03 09:45:48;;;;;;;26.13;19.47;;;;;;;;;;13014342;22;20177;-74
2021/05/03 09:50:51;;;;;;;22.57;15.80;;;;;;;;;;12983939;22;20361;-78
2021/05/03 09:55:52;;;;;;;17.50;12.53;;;;;;;;;;12947287;22;20516;-77
2021/05/03 10:00:56;;;;;;;20.87;15.20;;;;;;;;;;12892055;22;20494;-75
2021/05/03 10:05:58;;;;;;;23.43;16.67;;;;;;;;;;12949467;22;20185;-75
2021/05/03 10:11:03;;;;;;;18.90;14.00;;;;;;;;;;12947622;22;20186;-74
2021/05/03 10:16:07;;;;;;;19.97;14.77;;;;;;;;;;12944979;22;20210;-75
2021/05/03 10:21:09;;;;;;;18.60;13.33;;;;;;;;;;12970266;22;20746;-74
2021/05/03 10:26:11;;;;;;;19.93;14.10;;;;;;;;;;12968758;22;20202;-75
2021/05/03 10:31:14;;;;;;;12.40;9.10;;;;;;;;;;12965504;22;20170;-75
2021/05/03 10:36:30;;;;;;;19.33;13.63;;;;;;;;;;12967923;22;20201;-76
2021/05/03 10:41:32;;;;;;;17.97;13.10;;;;;;;;;;12966531;22;20633;-74
2021/05/03 10:52:04;;;;;;;15.17;9.57;;;;;;;;;;12947331;22;20269;-75
2021/05/03 10:57:07;;;;;;;14.47;9.73;;;;;;;;;;12945285;22;20201;-75
2021/05/03 11:02:10;;;;;;;10.50;7.57;;;;;;;;;;12942616;22;20196;-74
2021/05/03 11:07:13;;;;;;;14.27;9.67;;;;;;;;;;12959452;22;20615;-73
2021/05/03 11:12:28;;;;;;;11.60;8.80;;;;;;;;;;12959335;22;20174;-74
2021/05/03 11:17:36;;;;;;;12.83;7.73;;;;;;;;;;12956889;22;20193;-74
2021/05/03 11:22:42;;;;;;;11.70;7.30;;;;;;;;;;12939911;22;20217;-75
2021/05/03 11:27:50;;;;;;;12.97;9.13;;;;;;;;;;12960785;22;21143;-74
2021/05/03 11:32:55;;;;;;;15.77;10.60;;;;;;;;;;12936672;22;20167;-74
2021/05/03 11:38:02;;;;;;;15.03;8.97;;;;;;;;;;12939642;22;20216;-74
2021/05/03 11:48:30;;;;;;;18.80;9.40;;;;;;;;;;12938433;22;20178;-76
2021/05/03 11:53:36;;;;;;;11.87;8.30;;;;;;;;;;12940834;22;20173;-75
2021/05/03 11:58:38;;;;;;;11.07;8.00;;;;;;;;;;12938454;22;20369;-75
2021/05/03 12:03:44;;;;;;;12.70;8.80;;;;;;;;;;12939827;22;20538;-75
2021/05/03 12:08:57;;;;;;;13.33;9.20;;;;;;;;;;12960925;22;20181;-75
2021/05/03 12:13:59;;;;;;;11.67;7.63;;;;;;;;;;12959777;22;20208;-76
2021/05/03 12:19:02;;;;;;;10.20;7.27;;;;;;;;;;12959936;22;20189;-75
2021/05/03 12:24:11;;;;;;;11.80;7.20;;;;;;;;;;12960518;22;20198;-75
2021/05/03 12:29:13;;;;;;;9.50;7.17;;;;;;;;;;12960907;22;20823;-77
2021/05/03 12:34:20;;;;;;;10.20;7.53;;;;;;;;;;12958788;22;20202;-75
2021/05/03 12:39:21;;;;;;;13.30;9.67;;;;;;;;;;12939987;22;20508;-75
2021/05/03 12:44:43;;;;;;;11.57;7.63;;;;;;;;;;12957846;22;20661;-75
2021/05/03 12:49:54;;;;;;;9.23;7.40;;;;;;;;;;12963518;22;20220;-76
2021/05/03 12:55:01;;;;;;;14.90;8.67;;;;;;;;;;12939153;22;20186;-76
2021/05/03 13:00:10;;;;;;;11.90;7.87;;;;;;;;;;12957898;22;20722;-76
2021/05/03 13:05:22;;;;;;;9.70;7.57;;;;;;;;;;12961379;22;20258;-75
2021/05/03 13:32:09;;;;;;;11.30;6.33;;;;;;;;;;12957469;22;20627;-75
2021/05/03 13:37:12;;;;;;;10.00;7.03;;;;;;;;;;12938812;22;20531;-75
2021/05/03 13:42:34;;;;;;;10.70;6.73;;;;;;;;;;12937964;22;20194;-75
2021/05/03 13:47:35;;;;;;;10.30;6.97;;;;;;;;;;12961212;22;20182;-75
2021/05/03 13:52:39;;;;;;;10.70;6.43;;;;;;;;;;12942340;22;20320;-75
2021/05/03 13:57:40;;;;;;;9.30;6.50;;;;;;;;;;12942706;22;20206;-75
2021/05/03 14:02:42;;;;;;;7.37;6.03;;;;;;;;;;12940390;22;20186;-74
2021/05/03 14:07:45;;;;;;;8.57;5.90;;;;;;;;;;12942915;22;20189;-74
2021/05/03 14:12:47;;;;;;;9.03;6.90;;;;;;;;;;12943306;22;20496;-74
2021/05/03 14:17:49;;;;;;;8.53;5.80;;;;;;;;;;12961884;22;20220;-75
2021/05/03 14:22:52;;;;;;;8.17;5.87;;;;;;;;;;12943201;22;20190;-75
2021/05/03 14:27:54;;;;;;;10.33;6.03;;;;;;;;;;12940614;22;20930;-75
2021/05/03 14:32:58;;;;;;;7.90;5.67;;;;;;;;;;12939080;22;20179;-75
2021/05/03 14:38:01;;;;;;;7.53;6.10;;;;;;;;;;12962798;22;20674;-76
2021/05/03 14:43:06;;;;;;;7.67;5.07;;;;;;;;;;12962026;22;20529;-83
2021/05/03 14:48:12;;;;;;;6.37;4.90;;;;;;;;;;12939665;22;20467;-76
2021/05/03 14:53:23;;;;;;;6.87;4.90;;;;;;;;;;12942159;22;20628;-76
2021/05/03 14:58:25;;;;;;;9.07;6.07;;;;;;;;;;12938659;22;21441;-76
2021/05/03 15:03:27;;;;;;;7.47;6.07;;;;;;;;;;12940052;22;20202;-77
2021/05/03 15:08:29;;;;;;;11.73;6.93;;;;;;;;;;12940257;22;20499;-75
2021/05/03 15:13:38;;;;;;;14.40;6.67;;;;;;;;;;12961150;22;20569;-75
2021/05/03 15:19:03;;;;;;;14.17;7.37;;;;;;;;;;12959998;22;20206;-75
2021/05/03 15:24:10;;;;;;;9.67;6.63;;;;;;;;;;12961691;22;20594;-75
2021/05/03 15:29:19;;;;;;;11.10;6.73;;;;;;;;;;12940212;22;20194;-75
2021/05/03 15:34:21;;;;;;;9.63;5.87;;;;;;;;;;12960635;22;20457;-77
2021/05/03 15:39:23;;;;;;;10.63;5.90;;;;;;;;;;12940627;22;20178;-77
2021/05/03 15:44:29;;;;;;;12.50;5.50;;;;;;;;;;12959099;22;20531;-76
2021/05/03 15:49:34;;;;;;;11.40;6.37;;;;;;;;;;12960687;22;20175;-75
2021/05/03 15:54:37;;;;;;;14.90;7.60;;;;;;;;;;12961053;22;20198;-75
2021/05/03 15:59:38;;;;;;;11.67;6.63;;;;;;;;;;12936428;22;20963;-77
2021/05/03 16:04:40;;;;;;;8.33;5.77;;;;;;;;;;12960371;22;20250;-75
2021/05/03 16:09:43;;;;;;;7.27;4.83;;;;;;;;;;12961121;22;20182;-75
2021/05/03 16:14:45;;;;;;;8.17;5.07;;;;;;;;;;12938397;22;20210;-75
2021/05/03 16:19:47;;;;;;;7.00;4.40;;;;;;;;;;12961346;22;20182;-73
2021/05/03 16:24:50;;;;;;;7.13;5.03;;;;;;;;;;12961265;22;20287;-75
2021/05/03 16:29:53;;;;;;;7.93;4.33;;;;;;;;;;12936556;22;20513;-76
2021/05/03 16:34:54;;;;;;;6.60;4.60;;;;;;;;;;12961330;22;20521;-75
2021/05/03 16:39:57;;;;;;;8.50;4.93;;;;;;;;;;12938134;22;21116;-75
2021/05/03 16:45:01;;;;;;;6.80;4.70;;;;;;;;;;12956468;22;20706;-77
2021/05/03 16:50:03;;;;;;;7.40;5.03;;;;;;;;;;12960793;22;20184;-75
2021/05/03 16:55:07;;;;;;;10.67;4.93;;;;;;;;;;12960478;22;20232;-75
2021/05/03 17:00:10;;;;;;;7.33;4.90;;;;;;;;;;12957628;22;20208;-75
2021/05/03 17:05:17;;;;;;;7.60;4.77;;;;;;;;;;12938704;22;20586;-75
2021/05/03 17:10:20;;;;;;;6.40;4.37;;;;;;;;;;12960570;22;20655;-75
2021/05/03 17:15:22;;;;;;;8.50;4.33;;;;;;;;;;12957558;22;20202;-75
2021/05/03 17:20:28;;;;;;;6.97;4.70;;;;;;;;;;12943499;22;20267;-78
2021/05/03 17:25:30;;;;;;;7.60;4.67;;;;;;;;;;12945299;22;20210;-75
2021/05/03 17:30:32;;;;;;;7.30;4.50;;;;;;;;;;12961195;22;20274;-75
2021/05/03 17:35:34;;;;;;;7.00;4.83;;;;;;;;;;12943070;22;20290;-76
2021/05/03 17:40:37;;;;;;;21.77;13.87;;;;;;;;;;12964152;22;20678;-83
2021/05/03 17:45:39;;;;;;;49.57;30.53;;;;;;;;;;12960090;22;20174;-87
2021/05/03 17:50:41;;;;;;;29.53;18.13;;;;;;;;;;12963890;22;20725;-75
2021/05/03 17:55:50;;;;;;;16.07;10.70;;;;;;;;;;12940019;22;20741;-75
2021/05/03 18:00:52;;;;;;;19.60;12.23;;;;;;;;;;12960527;22;20197;-74
2021/05/03 18:05:54;;;;;;;13.67;9.43;;;;;;;;;;12962958;22;20174;-75
2021/05/03 18:10:56;;;;;;;16.97;6.93;;;;;;;;;;12941048;22;20646;-75
2021/05/03 18:15:59;;;;;;;9.63;6.17;;;;;;;;;;12940378;22;20232;-75
2021/05/03 18:21:07;;;;;;;7.97;5.93;;;;;;;;;;12963478;22;20301;-75
2021/05/03 18:26:10;;;;;;;10.37;5.97;;;;;;;;;;12964775;22;20182;-74
2021/05/03 18:31:12;;;;;;;9.17;6.37;;;;;;;;;;12937599;22;20174;-74
2021/05/03 18:36:14;;;;;;;8.63;5.83;;;;;;;;;;12940489;22;20545;-74
2021/05/03 18:41:17;;;;;;;9.47;6.73;;;;;;;;;;12942259;22;20487;-73
2021/05/03 18:46:19;;;;;;;9.40;5.83;;;;;;;;;;12938186;22;20179;-76
2021/05/03 18:51:21;;;;;;;7.63;5.60;;;;;;;;;;12942806;22;20174;-74
2021/05/03 18:56:24;;;;;;;9.40;5.80;;;;;;;;;;12962099;22;20212;-74
2021/05/03 19:01:28;;;;;;;6.70;5.03;;;;;;;;;;12939008;22;20267;-74
2021/05/03 19:06:30;;;;;;;7.90;5.20;;;;;;;;;;12963252;22;20695;-74
2021/05/03 19:11:33;;;;;;;8.60;5.20;;;;;;;;;;12939591;22;20181;-74
2021/05/03 19:16:34;;;;;;;8.83;4.90;;;;;;;;;;12937611;22;20206;-74
2021/05/03 19:21:36;;;;;;;7.70;4.93;;;;;;;;;;12962894;22;20276;-74
2021/05/03 19:26:39;;;;;;;6.53;4.70;;;;;;;;;;12962582;22;20182;-74
2021/05/03 19:31:44;;;;;;;11.27;5.00;;;;;;;;;;12936030;22;20281;-74
2021/05/03 19:36:47;;;;;;;6.67;4.90;;;;;;;;;;12967254;22;20233;-73
2021/05/03 19:41:49;;;;;;;8.77;4.90;;;;;;;;;;12967723;22;20174;-73
2021/05/03 19:46:53;;;;;;;7.83;5.10;;;;;;;;;;12945752;22;20807;-74
2021/05/03 20:02:59;;;;;;;8.43;5.10;;;;;;;;;;12942187;22;20182;-74
2021/05/03 20:08:01;;;;;;;9.40;6.10;;;;;;;;;;12946698;22;20748;-73
2021/05/03 20:13:04;;;;;;;9.10;5.83;;;;;;;;;;12946930;22;20513;-74
2021/05/03 20:18:06;;;;;;;9.40;6.07;;;;;;;;;;12944208;22;20602;-73
2021/05/03 20:23:08;;;;;;;7.47;6.10;;;;;;;;;;12967342;22;20285;-76
2021/05/03 20:28:11;;;;;;;10.37;6.90;;;;;;;;;;12970976;22;20182;-74
2021/05/03 20:33:19;;;;;;;10.47;6.57;;;;;;;;;;12966110;22;20178;-74
2021/05/03 20:38:33;;;;;;;9.27;6.50;;;;;;;;;;12968298;22;20358;-73
2021/05/03 20:43:37;;;;;;;11.17;6.50;;;;;;;;;;12945570;22;20174;-74
2021/05/03 20:48:39;;;;;;;10.00;6.20;;;;;;;;;;12943180;22;20179;-74
2021/05/03 20:53:40;;;;;;;11.30;7.40;;;;;;;;;;12947424;22;20181;-74
2021/05/03 20:58:43;;;;;;;10.27;7.17;;;;;;;;;;12945117;22;20240;-73
2021/05/03 21:03:45;;;;;;;11.57;6.83;;;;;;;;;;12966345;22;20787;-73
2021/05/03 21:08:46;;;;;;;9.30;6.20;;;;;;;;;;12947829;22;20174;-74
2021/05/03 21:13:59;;;;;;;10.17;7.07;;;;;;;;;;12967039;22;20177;-73
2021/05/03 21:19:01;;;;;;;10.83;7.43;;;;;;;;;;12944786;22;20312;-73
2021/05/03 21:24:03;;;;;;;10.00;6.80;;;;;;;;;;12947100;22;20205;-74
2021/05/03 21:29:06;;;;;;;10.90;6.63;;;;;;;;;;12966848;22;20258;-73
2021/05/03 21:34:08;;;;;;;14.30;6.63;;;;;;;;;;12945041;22;20167;-73
2021/05/03 21:39:10;;;;;;;10.97;6.77;;;;;;;;;;12947388;22;20843;-73
2021/05/03 21:44:13;;;;;;;8.00;6.30;;;;;;;;;;12965857;22;20179;-74
2021/05/03 21:49:15;;;;;;;7.83;6.00;;;;;;;;;;12942833;22;20210;-73
2021/05/03 21:54:17;;;;;;;9.10;5.67;;;;;;;;;;12946175;22;20815;-74
2021/05/03 21:59:20;;;;;;;9.50;5.33;;;;;;;;;;12955653;22;20206;-73
2021/05/03 22:04:22;;;;;;;8.17;5.87;;;;;;;;;;12967919;22;20253;-73
2021/05/03 22:09:25;;;;;;;7.33;5.10;;;;;;;;;;12969165;22;20174;-74
2021/05/03 22:14:28;;;;;;;8.43;4.93;;;;;;;;;;12950606;22;20213;-74
2021/05/03 22:19:37;;;;;;;8.57;5.97;;;;;;;;;;12948912;22;20201;-73
2021/05/03 22:24:40;;;;;;;6.13;4.27;;;;;;;;;;12949951;22;20709;-73
2021/05/03 22:29:43;;;;;;;8.73;5.27;;;;;;;;;;12968069;22;20598;-73
2021/05/03 22:34:45;;;;;;;7.23;4.87;;;;;;;;;;12951757;22;20178;-73
2021/05/03 22:40:02;;;;;;;7.13;4.50;;;;;;;;;;12971390;22;20228;-73
2021/05/03 22:45:58;;;;;;;8.13;4.10;;;;;;;;;;12950502;22;20596;-75
2021/05/03 23:17:53;;;;;;;5.30;3.60;;;;;;;;;;12948816;22;20198;-74
2021/05/03 23:22:55;;;;;;;5.83;2.80;;;;;;;;;;12969679;22;20228;-74
2021/05/03 23:27:56;;;;;;;3.77;2.70;;;;;;;;;;12949860;22;20171;-74
2021/05/03 23:32:59;;;;;;;4.20;2.80;;;;;;;;;;12945792;22;20204;-73
2021/05/03 23:38:01;;;;;;;4.13;2.80;;;;;;;;;;12949885;22;20212;-73
2021/05/03 23:43:03;;;;;;;6.47;2.93;;;;;;;;;;12947181;22;20236;-74
2021/05/03 23:48:06;;;;;;;3.67;2.60;;;;;;;;;;12943268;22;20205;-74
2021/05/03 23:53:08;;;;;;;6.77;3.07;;;;;;;;;;12946583;22;20522;-73
2021/05/03 23:58:11;;;;;;;3.93;2.80;;;;;;;;;;12944629;22;20734;-74
